Varna, Illinois
Current Conditions -  °F | °C
As of 7:15 PM on Saturday 25 Oct 2014 (Local Time) from KC75 Reporting Station
Clear Clear  
Wind Chill: 60°   Ceiling: Unl
Heat Index: 60°   Visibility: 10mi
Dew Point: 36°   Wind: 0mph
Humidity: 41%   Direction: NA
Pressure: 29.99"   Gusts: NA
Location:  41.04°N, 89.23°W
Report Text: KC75 260015Z AUTO 00000KT 10SM CLR 15/02 A2999 RMK AO2 T01540021
Loading
Personal Weather Stations






























Interactive Weather Map
Tropical Storm Tracking
New forecast layout! Learn more

10-Day Weather Forecast

Advertisements
Track Severe Weather on mobile